Pratica Di Mare, Italy

12:14 AM CET on February 13, 2016 (GMT +0100)
Pomezia | | Change Station
CLOSE
Current Station
Personal Weather Station
Location: Pomezia, LAZIO
Elevation: 256 ft
Nearby Weather Stations

Elev 256 ft 41.67 °N, 12.51 °E | Updated 3 minutes ago

Light Rain
Light Rain
55.8 °F
Feels Like 55.8 °F
N
2.0
Wind Variable Wind from South
Gusts 10.0 mph

Today
High -- | Low -- °F
--% Chance of Precip.
Yesterday
High -- | Low -- °F
Precip. -- in
Pressure 29.56 in
Visibility 5.0 miles
Clouds Scattered Clouds 900 ft
Mostly Cloudy 2500 ft
Dew Point 54 °F
Humidity 95%
Rainfall 0.00 in
Snow Depth Not available.
7:09 AM 5:40 PM
Waxing Crescent, 24% visible
METAR LIRE 122255Z 21013KT 8000 -RA SCT009 BKN025 14/14 Q1001 RMK OVC VIS MIN 8000 WIND THR13 23011KT WIND THR31 23013KT BLU
Pressure 29.56 in
Visibility 5.0 miles
Clouds Scattered Clouds 900 ft
Mostly Cloudy 2500 ft
Dew Point 54 °F
Humidity 95%
Rainfall 0.00 in
Snow Depth Not available.
7:09 AM 5:40 PM
Waxing Crescent, 24% visible
METAR LIRE 122255Z 21013KT 8000 -RA SCT009 BKN025 14/14 Q1001 RMK OVC VIS MIN 8000 WIND THR13 23011KT WIND THR31 23013KT BLU

10-Day Weather Forecast

Almanac

Astronomy

Feb. 13, 2016 Rise Set
Actual Time
Civil Twilight
Nautical Twilight
Astronomical Twilight
Moon
Length of Visible Light
Length of Day
Tomorrow will be .
, % of the Moon is Illuminated

Today's Extremes

Country Highs Country Lows

Community

WunderPhotos

Upload Photos

1,892,431 photos uploaded!

WunderBlog® & News

Nearby

Air Quality

  Air Quality AQ Index Pollutant
Not available.

Snow Depth

Station Depth Elevation

Earthquake Activity

City Distance Mag. Time & Date
Minimum magnitude displayed is 2.5.

Coastal Water Temperatures

Place Temperature

Stations

Nearby Weather Stations

Station Location Temp. Windchill Dew Point Humidity Wind Precip. Elev Updated Type